createdAt,value
2019-04-01T00:00:04.990Z,0
2019-04-01T00:00:28.381Z,0
2019-04-01T00:00:51.697Z,0
2019-04-01T00:01:15.036Z,0
2019-04-01T00:01:38.394Z,0
2019-04-01T00:02:01.717Z,0
2019-04-01T00:02:25.069Z,0
2019-04-01T00:02:48.431Z,0
2019-04-01T00:03:11.757Z,0
2019-04-01T00:03:35.078Z,0
2019-04-01T00:04:00.491Z,0
2019-04-01T00:04:26.212Z,0
2019-04-01T00:04:51.591Z,0
2019-04-01T00:05:16.969Z,0
2019-04-01T00:05:42.350Z,0
2019-04-01T00:06:07.739Z,0
2019-04-01T00:06:33.126Z,0
2019-04-01T00:06:58.495Z,0
2019-04-01T00:07:23.886Z,0
2019-04-01T00:07:49.250Z,0
2019-04-01T00:08:14.620Z,0
2019-04-01T00:08:39.987Z,0
2019-04-01T00:09:05.530Z,0
2019-04-01T00:09:30.956Z,0
2019-04-01T00:09:56.331Z,0
2019-04-01T00:10:21.706Z,0
2019-04-01T00:10:47.074Z,0
2019-04-01T00:11:12.469Z,0
2019-04-01T00:11:36.468Z,0
2019-04-01T00:11:59.781Z,0
2019-04-01T00:12:23.103Z,0
2019-04-01T00:12:46.478Z,0
2019-04-01T00:13:09.884Z,0
2019-04-01T00:13:33.202Z,0
2019-04-01T00:13:56.563Z,0
2019-04-01T00:14:19.878Z,0
2019-04-01T00:14:43.230Z,0
2019-04-01T00:15:06.673Z,0
2019-04-01T00:15:29.984Z,0
2019-04-01T00:15:53.295Z,0
2019-04-01T00:16:16.638Z,0
2019-04-01T00:16:39.957Z,0
2019-04-01T00:17:03.269Z,0
2019-04-01T00:17:26.641Z,0
2019-04-01T00:17:49.977Z,0
2019-04-01T00:18:13.308Z,0
2019-04-01T00:18:36.861Z,0
2019-04-01T00:19:03.239Z,0
2019-04-01T00:19:26.963Z,0
2019-04-01T00:19:50.631Z,0
2019-04-01T00:20:13.943Z,0
2019-04-01T00:20:37.261Z,0
2019-04-01T00:21:00.615Z,0
2019-04-01T00:21:23.933Z,0
2019-04-01T00:21:47.248Z,0
2019-04-01T00:22:10.760Z,0
2019-04-01T00:22:34.119Z,0
2019-04-01T00:22:57.545Z,0
2019-04-01T00:23:21.048Z,0
2019-04-01T00:23:44.368Z,0
2019-04-01T00:24:07.690Z,0
2019-04-01T00:24:31.070Z,0
2019-04-01T00:24:54.452Z,0
2019-04-01T00:25:17.785Z,0
2019-04-01T00:25:43.184Z,0
2019-04-01T00:26:08.571Z,0
2019-04-01T00:26:33.951Z,0
2019-04-01T00:26:59.327Z,0
2019-04-01T00:27:24.789Z,0
2019-04-01T00:27:50.163Z,0
2019-04-01T00:28:13.670Z,0
2019-04-01T00:28:36.993Z,0
2019-04-01T00:29:00.315Z,0
2019-04-01T00:29:23.678Z,0
2019-04-01T00:29:47.009Z,0
2019-04-01T00:30:10.372Z,0
2019-04-01T00:30:33.741Z,0
2019-04-01T00:30:57.054Z,0
2019-04-01T00:31:20.362Z,0
2019-04-01T00:31:43.788Z,0
2019-04-01T00:32:07.117Z,0
2019-04-01T00:32:30.435Z,0
2019-04-01T00:32:53.801Z,0
2019-04-01T00:33:17.119Z,0
2019-04-01T00:33:40.447Z,0
2019-04-01T00:34:06.004Z,0
2019-04-01T00:34:31.378Z,0
2019-04-01T00:34:56.746Z,0
2019-04-01T00:35:22.157Z,0
2019-04-01T00:35:47.522Z,0
2019-04-01T00:36:12.900Z,0
2019-04-01T00:36:38.457Z,0
2019-04-01T00:37:03.830Z,0
2019-04-01T00:37:29.200Z,0
2019-04-01T00:37:54.570Z,0
2019-04-01T00:38:19.942Z,0
2019-04-01T00:38:45.309Z,0
2019-04-01T00:39:08.735Z,0
2019-04-01T00:39:32.050Z,0
2019-04-01T00:39:55.371Z,0
2019-04-01T00:40:18.778Z,0
2019-04-01T00:40:31.358Z,0
2019-04-01T00:40:54.676Z,0
2019-04-01T00:41:17.996Z,0
2019-04-01T00:41:43.415Z,0
2019-04-01T00:42:08.787Z,0
2019-04-01T00:42:34.159Z,0
2019-04-01T00:42:59.527Z,0
2019-04-01T00:43:24.891Z,0
2019-04-01T00:43:50.261Z,0
2019-04-01T00:44:13.663Z,0
2019-04-01T00:44:40.234Z,0
2019-04-01T00:45:03.839Z,0
2019-04-01T00:45:27.191Z,0
2019-04-01T00:45:50.561Z,0
2019-04-01T00:46:13.911Z,0
2019-04-01T00:46:37.279Z,0
2019-04-01T00:47:00.606Z,0
2019-04-01T00:47:23.929Z,0
2019-04-01T00:47:47.307Z,0
2019-04-01T00:48:10.700Z,0
2019-04-01T00:48:34.039Z,0
2019-04-01T00:48:57.410Z,0
2019-04-01T00:49:20.725Z,0
2019-04-01T00:49:44.039Z,0
2019-04-01T00:50:07.392Z,0
2019-04-01T00:50:30.701Z,0
2019-04-01T00:50:54.060Z,0
2019-04-01T00:51:17.579Z,0
2019-04-01T00:51:40.899Z,0
2019-04-01T00:52:04.220Z,0
2019-04-01T00:52:27.569Z,0
2019-04-01T00:52:50.886Z,0
2019-04-01T00:53:17.782Z,0
2019-04-01T00:53:41.404Z,0
2019-04-01T00:54:04.741Z,0
2019-04-01T00:54:28.066Z,0
2019-04-01T00:54:51.474Z,0
2019-04-01T00:55:14.789Z,0
2019-04-01T00:55:38.105Z,0
2019-04-01T00:56:01.504Z,0
2019-04-01T00:56:24.824Z,0
2019-04-01T00:56:48.155Z,0
2019-04-01T00:57:11.510Z,0
2019-04-01T00:57:34.825Z,0
2019-04-01T00:57:58.144Z,0
2019-04-01T00:58:21.529Z,0
2019-04-01T00:58:44.873Z,0
2019-04-01T00:59:08.192Z,0
2019-04-01T00:59:31.546Z,0
2019-04-01T00:59:54.864Z,0
2019-04-01T01:00:18.174Z,0
2019-04-01T01:00:41.531Z,0
2019-04-01T01:01:04.950Z,0
2019-04-01T01:01:28.276Z,0
2019-04-01T01:01:51.696Z,0
2019-04-01T01:02:15.008Z,0
2019-04-01T01:02:38.329Z,0
2019-04-01T01:03:01.700Z,0
2019-04-01T01:03:25.016Z,0
2019-04-01T01:03:48.353Z,0
2019-04-01T01:04:11.722Z,0
2019-04-01T01:04:35.039Z,0
2019-04-01T01:04:58.359Z,0
2019-04-01T01:05:21.773Z,0
2019-04-01T01:05:45.102Z,0
2019-04-01T01:06:08.454Z,0
2019-04-01T01:06:31.826Z,0
2019-04-01T01:06:55.150Z,0
2019-04-01T01:07:18.477Z,0
2019-04-01T01:07:41.848Z,0
2019-04-01T01:08:05.175Z,0
2019-04-01T01:08:28.494Z,0
2019-04-01T01:08:52.119Z,0
2019-04-01T01:09:15.464Z,0
2019-04-01T01:09:38.778Z,0
2019-04-01T01:10:02.128Z,0
2019-04-01T01:10:25.453Z,0
2019-04-01T01:10:48.778Z,0
2019-04-01T01:11:12.170Z,0
2019-04-01T01:11:35.478Z,0
2019-04-01T01:11:58.812Z,0
2019-04-01T01:12:22.233Z,0
2019-04-01T01:12:45.571Z,0
2019-04-01T01:13:08.901Z,0
2019-04-01T01:13:32.267Z,0
2019-04-01T01:13:55.664Z,0
2019-04-01T01:14:19.073Z,0
2019-04-01T01:14:42.449Z,0
2019-04-01T01:15:05.781Z,0
2019-04-01T01:15:29.095Z,0
2019-04-01T01:15:52.678Z,0
2019-04-01T01:16:16.023Z,0
2019-04-01T01:16:39.347Z,0
2019-04-01T01:17:02.704Z,0
2019-04-01T01:17:26.081Z,0
2019-04-01T01:17:49.417Z,0
2019-04-01T01:18:12.765Z,0
2019-04-01T01:18:36.093Z,0
2019-04-01T01:18:59.407Z,0
2019-04-01T01:19:22.901Z,0
2019-04-01T01:19:46.221Z,0
2019-04-01T01:20:09.546Z,0
2019-04-01T01:20:33.926Z,0
2019-04-01T01:20:57.237Z,0
2019-04-01T01:21:20.590Z,0
2019-04-01T01:21:43.950Z,0
2019-04-01T01:22:07.277Z,0
2019-04-01T01:22:30.589Z,0
2019-04-01T01:22:53.994Z,0
2019-04-01T01:23:17.316Z,0
2019-04-01T01:23:40.638Z,0
2019-04-01T01:24:04.013Z,0
2019-04-01T01:24:27.334Z,0
2019-04-01T01:24:50.656Z,0
2019-04-01T01:25:14.020Z,0
2019-04-01T01:25:37.354Z,0
2019-04-01T01:26:00.749Z,0
2019-04-01T01:26:24.306Z,0
2019-04-01T01:26:47.628Z,0
2019-04-01T01:27:10.946Z,0
2019-04-01T01:27:34.409Z,0
2019-04-01T01:27:57.805Z,0
2019-04-01T01:28:21.128Z,0
2019-04-01T01:28:44.584Z,0
2019-04-01T01:29:07.923Z,0
2019-04-01T01:29:31.242Z,0
2019-04-01T01:29:56.636Z,0
2019-04-01T01:30:22.027Z,0
2019-04-01T01:30:47.402Z,0
2019-04-01T01:31:12.772Z,0
2019-04-01T01:31:38.191Z,0
2019-04-01T01:32:03.573Z,0
2019-04-01T01:32:27.020Z,0
2019-04-01T01:32:50.344Z,0
2019-04-01T01:33:13.664Z,0
2019-04-01T01:33:37.045Z,0
2019-04-01T01:34:00.455Z,0
2019-04-01T01:34:23.780Z,0
2019-04-01T01:34:47.172Z,0
2019-04-01T01:35:10.496Z,0
2019-04-01T01:35:33.818Z,0
2019-04-01T01:35:57.338Z,0
2019-04-01T01:36:20.773Z,0
2019-04-01T01:36:44.113Z,0
2019-04-01T01:37:07.469Z,0
2019-04-01T01:37:30.789Z,0
2019-04-01T01:37:54.117Z,0
2019-04-01T01:38:17.472Z,0
2019-04-01T01:38:40.805Z,0
2019-04-01T01:39:04.133Z,0
2019-04-01T01:39:27.538Z,0
2019-04-01T01:39:50.857Z,0
2019-04-01T01:40:14.175Z,0
2019-04-01T01:40:37.541Z,0
2019-04-01T01:41:00.881Z,0
2019-04-01T01:41:24.209Z,0
2019-04-01T01:41:47.617Z,0
2019-04-01T01:42:10.930Z,0
2019-04-01T01:42:34.249Z,0
2019-04-01T01:42:57.772Z,0
2019-04-01T01:43:21.118Z,0
2019-04-01T01:43:44.430Z,0
2019-04-01T01:44:07.811Z,0
2019-04-01T01:44:31.124Z,0
2019-04-01T01:44:54.463Z,0
2019-04-01T01:45:17.837Z,0
2019-04-01T01:45:41.155Z,0
2019-04-01T01:45:54.333Z,0
2019-04-01T01:46:17.642Z,0
2019-04-01T01:46:41.195Z,0
2019-04-01T01:47:04.543Z,0
2019-04-01T01:47:27.868Z,0
2019-04-01T01:47:51.217Z,0
2019-04-01T01:48:14.547Z,0
2019-04-01T01:48:37.876Z,0
2019-04-01T01:49:01.239Z,0
2019-04-01T01:49:24.577Z,0
2019-04-01T01:49:47.896Z,0
2019-04-01T01:50:11.509Z,0
2019-04-01T01:50:34.836Z,0
2019-04-01T01:50:58.165Z,0
2019-04-01T01:51:21.735Z,0
2019-04-01T01:51:45.052Z,0
2019-04-01T01:52:08.425Z,0
2019-04-01T01:52:31.795Z,0
2019-04-01T01:52:55.114Z,0
2019-04-01T01:53:18.448Z,0
2019-04-01T01:53:41.945Z,0
2019-04-01T01:54:05.302Z,0
2019-04-01T01:54:28.636Z,0
2019-04-01T01:54:52.000Z,0
2019-04-01T01:55:15.315Z,0
2019-04-01T01:55:38.643Z,0
2019-04-01T01:56:02.008Z,0
2019-04-01T01:56:25.337Z,0
2019-04-01T01:56:48.650Z,0
2019-04-01T01:57:12.478Z,0
2019-04-01T01:57:35.811Z,0
2019-04-01T01:57:59.126Z,0
2019-04-01T01:58:22.488Z,0
2019-04-01T01:58:45.809Z,0
2019-04-01T01:59:09.153Z,0
2019-04-01T01:59:32.509Z,0
2019-04-01T01:59:55.831Z,0
2019-04-01T02:00:19.160Z,0
2019-04-01T02:00:42.573Z,0
2019-04-01T02:01:05.903Z,0
2019-04-01T02:01:29.248Z,0
2019-04-01T02:01:52.601Z,0
2019-04-01T02:02:15.970Z,0
2019-04-01T02:02:39.289Z,0
2019-04-01T02:03:02.646Z,0
2019-04-01T02:03:25.972Z,0
2019-04-01T02:03:49.297Z,0
2019-04-01T02:04:12.707Z,0
2019-04-01T02:04:36.023Z,0
2019-04-01T02:04:59.335Z,0
2019-04-01T02:05:22.699Z,0
2019-04-01T02:05:46.025Z,0
2019-04-01T02:06:09.379Z,0
2019-04-01T02:06:32.742Z,0
2019-04-01T02:06:56.065Z,0
2019-04-01T02:07:19.434Z,0
2019-04-01T02:07:42.839Z,0
2019-04-01T02:08:06.166Z,0
2019-04-01T02:08:29.484Z,0
2019-04-01T02:08:52.857Z,0
2019-04-01T02:09:16.188Z,0
2019-04-01T02:09:39.507Z,0
2019-04-01T02:10:02.884Z,0
2019-04-01T02:10:26.211Z,0
2019-04-01T02:10:49.547Z,0
2019-04-01T02:11:12.959Z,0
2019-04-01T02:11:36.280Z,0
2019-04-01T02:11:59.595Z,0
2019-04-01T02:12:22.991Z,0
2019-04-01T02:12:46.335Z,0
2019-04-01T02:13:09.689Z,0
2019-04-01T02:13:33.117Z,0
2019-04-01T02:13:56.437Z,0
2019-04-01T02:14:19.768Z,0
2019-04-01T02:14:43.261Z,0
2019-04-01T02:15:06.585Z,0
2019-04-01T02:15:29.922Z,0
2019-04-01T02:15:53.284Z,0
2019-04-01T02:16:16.597Z,0
2019-04-01T02:16:39.922Z,0
2019-04-01T02:17:03.276Z,0
2019-04-01T02:17:26.625Z,0
2019-04-01T02:17:49.941Z,0
2019-04-01T02:18:13.368Z,0
2019-04-01T02:18:36.685Z,0
2019-04-01T02:19:00.004Z,0
2019-04-01T02:19:23.353Z,0
2019-04-01T02:19:46.660Z,0
2019-04-01T02:20:09.992Z,0
2019-04-01T02:20:33.354Z,0
2019-04-01T02:20:56.682Z,0
2019-04-01T02:21:20.016Z,0
2019-04-01T02:21:45.425Z,0
2019-04-01T02:22:10.815Z,0
2019-04-01T02:22:25.319Z,0
2019-04-01T02:22:50.834Z,0
2019-04-01T02:23:16.208Z,0
2019-04-01T02:23:41.583Z,0
2019-04-01T02:24:06.960Z,0
2019-04-01T02:24:30.508Z,0
2019-04-01T02:24:53.820Z,0
2019-04-01T02:25:17.144Z,0
2019-04-01T02:25:40.506Z,0
2019-04-01T02:26:03.841Z,0
2019-04-01T02:26:27.174Z,0
2019-04-01T02:26:50.531Z,0
2019-04-01T02:27:13.852Z,0
2019-04-01T02:27:37.171Z,0
2019-04-01T02:28:02.740Z,0
2019-04-01T02:28:28.108Z,0
2019-04-01T02:28:53.548Z,0
2019-04-01T02:29:18.950Z,0
2019-04-01T02:29:44.316Z,0
2019-04-01T02:30:09.702Z,0
2019-04-01T02:30:35.251Z,0
2019-04-01T02:31:00.627Z,0
2019-04-01T02:31:26.007Z,0
2019-04-01T02:31:51.437Z,0
2019-04-01T02:32:16.839Z,0
2019-04-01T02:32:42.221Z,0
2019-04-01T02:33:05.977Z,0
2019-04-01T02:33:29.317Z,0
2019-04-01T02:33:52.651Z,0
2019-04-01T02:34:16.012Z,0
2019-04-01T02:34:39.334Z,0
2019-04-01T02:35:02.655Z,0
2019-04-01T02:35:26.021Z,0
2019-04-01T02:35:49.345Z,0
2019-04-01T02:36:12.684Z,0
2019-04-01T02:36:36.184Z,0
2019-04-01T02:36:59.534Z,0
2019-04-01T02:37:22.889Z,0
2019-04-01T02:37:46.293Z,0
2019-04-01T02:38:09.658Z,0
2019-04-01T02:38:32.995Z,0
2019-04-01T02:38:56.499Z,0
2019-04-01T02:39:19.837Z,0
2019-04-01T02:39:43.191Z,0
2019-04-01T02:40:06.918Z,0
2019-04-01T02:40:30.261Z,0
2019-04-01T02:40:53.588Z,0
2019-04-01T02:41:16.953Z,0
2019-04-01T02:41:40.287Z,0
2019-04-01T02:42:03.617Z,0
2019-04-01T02:42:27.008Z,0
2019-04-01T02:42:50.333Z,0
2019-04-01T02:43:13.775Z,0
2019-04-01T02:43:37.226Z,0
2019-04-01T02:44:00.573Z,0
2019-04-01T02:44:23.898Z,0
2019-04-01T02:44:47.274Z,0
2019-04-01T02:45:10.720Z,0
2019-04-01T02:45:34.058Z,0
2019-04-01T02:45:57.527Z,0
2019-04-01T02:46:20.875Z,0
2019-04-01T02:46:44.236Z,0
2019-04-01T02:47:07.770Z,0
2019-04-01T02:47:31.120Z,0
2019-04-01T02:47:54.447Z,0
2019-04-01T02:48:18.146Z,0
2019-04-01T02:48:41.470Z,0
2019-04-01T02:49:04.804Z,0
2019-04-01T02:49:28.176Z,0
2019-04-01T02:49:51.505Z,0
2019-04-01T02:50:14.859Z,0
2019-04-01T02:50:38.272Z,0
2019-04-01T02:51:01.677Z,0
2019-04-01T02:51:25.031Z,0
2019-04-01T02:51:49.286Z,0
2019-04-01T02:52:12.624Z,0
2019-04-01T02:52:35.950Z,0
2019-04-01T02:52:59.312Z,0
2019-04-01T02:53:22.688Z,0
2019-04-01T02:53:46.017Z,0
2019-04-01T02:54:11.692Z,0
2019-04-01T02:54:37.094Z,0
2019-04-01T02:55:06.367Z,0
2019-04-01T02:55:32.392Z,0
2019-04-01T02:55:57.768Z,0
2019-04-01T02:56:23.169Z,0
2019-04-01T02:56:46.696Z,0
2019-04-01T02:57:10.017Z,0
2019-04-01T02:57:33.351Z,0
2019-04-01T02:57:56.733Z,0
2019-04-01T02:58:20.057Z,0
2019-04-01T02:58:43.405Z,0
2019-04-01T02:59:06.759Z,0
2019-04-01T02:59:30.094Z,0
2019-04-01T02:59:53.416Z,0
2019-04-01T03:00:16.998Z,0
2019-04-01T03:00:40.349Z,0
2019-04-01T03:01:03.701Z,0
2019-04-01T03:01:27.103Z,0
2019-04-01T03:01:50.435Z,0
2019-04-01T03:02:13.795Z,0
2019-04-01T03:02:37.168Z,0
2019-04-01T03:03:00.539Z,0
2019-04-01T03:03:23.895Z,0
2019-04-01T03:03:49.447Z,0
2019-04-01T03:04:14.835Z,0
2019-04-01T03:04:40.195Z,0
2019-04-01T03:05:05.576Z,0
2019-04-01T03:05:30.961Z,0
2019-04-01T03:05:56.344Z,0
2019-04-01T03:06:19.781Z,0
2019-04-01T03:06:43.107Z,0
2019-04-01T03:07:06.433Z,0
2019-04-01T03:07:29.792Z,0
2019-04-01T03:07:53.109Z,0
2019-04-01T03:08:16.441Z,0
2019-04-01T03:08:39.829Z,0
2019-04-01T03:09:03.182Z,0
2019-04-01T03:09:26.533Z,0
2019-04-01T03:09:49.922Z,0
2019-04-01T03:10:13.243Z,0
2019-04-01T03:10:36.567Z,0
2019-04-01T03:10:59.941Z,0
2019-04-01T03:11:23.323Z,0
2019-04-01T03:11:46.662Z,0
2019-04-01T03:12:10.032Z,0
2019-04-01T03:12:33.373Z,0
2019-04-01T03:12:56.710Z,0
2019-04-01T03:13:22.140Z,0
2019-04-01T03:13:47.534Z,0
2019-04-01T03:14:13.206Z,0
2019-04-01T03:14:28.325Z,0
2019-04-01T03:14:53.704Z,0
2019-04-01T03:15:19.117Z,0
2019-04-01T03:15:44.505Z,0
2019-04-01T03:16:07.925Z,0
2019-04-01T03:16:31.325Z,0
2019-04-01T03:16:54.656Z,0
2019-04-01T03:17:18.035Z,0
2019-04-01T03:17:41.354Z,0
2019-04-01T03:18:04.681Z,0
2019-04-01T03:18:28.054Z,0
2019-04-01T03:18:51.380Z,0
2019-04-01T03:19:14.718Z,0
2019-04-01T03:19:40.149Z,0
2019-04-01T03:20:05.700Z,0
2019-04-01T03:20:31.104Z,0
2019-04-01T03:20:56.628Z,0
2019-04-01T03:21:22.029Z,0
2019-04-01T03:21:47.413Z,0
2019-04-01T03:22:10.830Z,0
2019-04-01T03:22:34.163Z,0
2019-04-01T03:22:57.524Z,0
2019-04-01T03:23:20.900Z,0
2019-04-01T03:23:44.338Z,0
2019-04-01T03:24:07.675Z,0
2019-04-01T03:24:31.101Z,0
2019-04-01T03:24:54.430Z,0
2019-04-01T03:25:17.755Z,0
2019-04-01T03:25:41.167Z,0
2019-04-01T03:26:04.486Z,0
2019-04-01T03:26:27.810Z,0
2019-04-01T03:26:51.173Z,0
2019-04-01T03:27:17.201Z,0
2019-04-01T03:27:41.058Z,0
2019-04-01T03:28:04.421Z,0
2019-04-01T03:28:27.756Z,0
2019-04-01T03:28:51.082Z,0
2019-04-01T03:29:14.495Z,0
2019-04-01T03:29:37.873Z,0
2019-04-01T03:30:01.227Z,0
2019-04-01T03:30:24.594Z,0
2019-04-01T03:30:47.940Z,0
2019-04-01T03:31:11.339Z,0
2019-04-01T03:31:34.719Z,0
2019-04-01T03:31:58.037Z,0
2019-04-01T03:32:21.400Z,0
2019-04-01T03:32:45.760Z,0
2019-04-01T03:33:09.201Z,0
2019-04-01T03:33:32.558Z,0
2019-04-01T03:33:56.185Z,0
2019-04-01T03:34:19.558Z,0
2019-04-01T03:34:42.918Z,0
2019-04-01T03:35:06.365Z,0
2019-04-01T03:35:29.719Z,0
2019-04-01T03:35:53.063Z,0
2019-04-01T03:36:16.593Z,0
2019-04-01T03:36:39.928Z,0
2019-04-01T03:37:03.281Z,0
2019-04-01T03:37:26.682Z,0
2019-04-01T03:37:50.014Z,0
2019-04-01T03:38:13.361Z,0
2019-04-01T03:38:36.727Z,0
2019-04-01T03:39:00.046Z,0
2019-04-01T03:39:23.367Z,0
2019-04-01T03:39:46.789Z,0
2019-04-01T03:40:10.115Z,0
2019-04-01T03:40:33.441Z,0
2019-04-01T03:40:56.827Z,0
2019-04-01T03:41:20.150Z,0
2019-04-01T03:41:43.485Z,0
2019-04-01T03:42:06.843Z,0
2019-04-01T03:42:30.196Z,0
2019-04-01T03:42:53.528Z,0
2019-04-01T03:43:16.948Z,0
2019-04-01T03:43:40.279Z,0
2019-04-01T03:44:03.603Z,0
2019-04-01T03:44:26.986Z,0
2019-04-01T03:44:54.783Z,0
2019-04-01T03:45:19.600Z,0
2019-04-01T03:45:42.975Z,0
2019-04-01T03:46:06.326Z,0
2019-04-01T03:46:29.675Z,0
2019-04-01T03:46:53.088Z,0
2019-04-01T03:47:16.410Z,0
2019-04-01T03:47:39.739Z,0
2019-04-01T03:48:03.122Z,0
2019-04-01T03:48:26.462Z,0
2019-04-01T03:48:49.788Z,0
2019-04-01T03:49:13.190Z,0
2019-04-01T03:49:36.534Z,0
2019-04-01T03:49:59.886Z,0
2019-04-01T03:50:23.302Z,0
2019-04-01T03:50:46.614Z,0
2019-04-01T03:51:09.948Z,0
2019-04-01T03:51:33.341Z,0
2019-04-01T03:51:56.674Z,0
2019-04-01T03:52:20.028Z,0
2019-04-01T03:52:43.423Z,0
2019-04-01T03:53:06.749Z,0
2019-04-01T03:53:30.082Z,0
2019-04-01T03:53:53.659Z,0
2019-04-01T03:54:16.970Z,0
2019-04-01T03:54:40.300Z,0
2019-04-01T03:55:03.711Z,0
2019-04-01T03:55:27.048Z,0
2019-04-01T03:55:50.373Z,0
2019-04-01T03:56:13.736Z,0
2019-04-01T03:56:37.067Z,0
2019-04-01T03:57:00.399Z,0
2019-04-01T03:57:23.847Z,0
2019-04-01T03:57:47.183Z,0
2019-04-01T03:58:10.530Z,0
2019-04-01T03:58:33.922Z,0
2019-04-01T03:58:57.258Z,0
2019-04-01T03:59:20.594Z,0
2019-04-01T03:59:44.096Z,0
2019-04-01T04:00:07.748Z,0
2019-04-01T04:00:31.080Z,0
2019-04-01T04:00:54.533Z,0
2019-04-01T04:01:07.472Z,0
2019-04-01T04:01:30.931Z,0
2019-04-01T04:01:54.263Z,0
2019-04-01T04:02:17.670Z,0
2019-04-01T04:02:41.013Z,0
2019-04-01T04:03:04.334Z,0
2019-04-01T04:03:29.800Z,0
2019-04-01T04:03:55.166Z,0
2019-04-01T04:04:20.558Z,0
2019-04-01T04:04:45.930Z,0
2019-04-01T04:05:11.329Z,0
2019-04-01T04:05:36.712Z,0
2019-04-01T04:06:00.146Z,0
2019-04-01T04:06:23.510Z,0
2019-04-01T04:06:46.846Z,0
2019-04-01T04:07:10.225Z,0
2019-04-01T04:07:33.555Z,0
2019-04-01T04:07:56.863Z,0
2019-04-01T04:08:20.240Z,0
2019-04-01T04:08:43.569Z,0
2019-04-01T04:09:06.971Z,0
2019-04-01T04:09:32.546Z,0
2019-04-01T04:09:57.951Z,0
2019-04-01T04:10:23.358Z,0
2019-04-01T04:10:48.732Z,0
2019-04-01T04:11:14.110Z,0
2019-04-01T04:11:39.505Z,0
2019-04-01T04:12:05.050Z,0
2019-04-01T04:12:30.426Z,0
2019-04-01T04:12:55.808Z,0
2019-04-01T04:13:21.197Z,0
2019-04-01T04:13:46.592Z,0
2019-04-01T04:14:11.977Z,0
2019-04-01T04:14:37.387Z,0
2019-04-01T04:15:02.781Z,0
2019-04-01T04:15:28.198Z,0
2019-04-01T04:15:53.578Z,0
2019-04-01T04:16:18.950Z,0
2019-04-01T04:16:44.334Z,0
2019-04-01T04:17:10.094Z,0
2019-04-01T04:17:35.481Z,0
2019-04-01T04:18:00.859Z,0
2019-04-01T04:18:26.243Z,0
2019-04-01T04:18:51.613Z,0
2019-04-01T04:19:16.993Z,0
2019-04-01T04:19:40.510Z,0
2019-04-01T04:20:03.834Z,0
2019-04-01T04:20:27.193Z,0
2019-04-01T04:20:50.594Z,0
2019-04-01T04:21:13.930Z,0
2019-04-01T04:21:37.263Z,0
2019-04-01T04:22:00.641Z,0
2019-04-01T04:22:23.971Z,0
2019-04-01T04:22:47.368Z,0
2019-04-01T04:23:10.775Z,0
2019-04-01T04:23:34.122Z,0
2019-04-01T04:23:57.435Z,0
2019-04-01T04:24:20.824Z,0
2019-04-01T04:24:44.150Z,0
2019-04-01T04:25:07.483Z,0
2019-04-01T04:25:30.850Z,0
2019-04-01T04:25:54.196Z,0
2019-04-01T04:26:17.539Z,0
2019-04-01T04:26:40.929Z,0
2019-04-01T04:27:04.251Z,0
2019-04-01T04:27:27.572Z,0
2019-04-01T04:27:51.014Z,0
2019-04-01T04:28:14.373Z,0
2019-04-01T04:28:37.702Z,0
2019-04-01T04:29:01.097Z,0
2019-04-01T04:29:24.426Z,0
2019-04-01T04:29:47.760Z,0
2019-04-01T04:30:11.156Z,0
2019-04-01T04:30:34.475Z,0
2019-04-01T04:30:57.852Z,0
2019-04-01T04:31:21.207Z,0
2019-04-01T04:31:44.542Z,0
2019-04-01T04:32:07.867Z,0
2019-04-01T04:32:31.221Z,0
2019-04-01T04:32:54.554Z,0
2019-04-01T04:33:07.341Z,0
2019-04-01T04:33:30.677Z,0
2019-04-01T04:33:54.078Z,0
2019-04-01T04:34:17.463Z,0
2019-04-01T04:34:40.784Z,0
2019-04-01T04:35:04.160Z,0
2019-04-01T04:35:27.485Z,0
2019-04-01T04:35:50.812Z,0
2019-04-01T04:36:14.378Z,0
2019-04-01T04:36:37.709Z,0
2019-04-01T04:37:01.045Z,0
2019-04-01T04:37:24.591Z,0
2019-04-01T04:37:47.924Z,0
2019-04-01T04:38:11.253Z,0
2019-04-01T04:38:34.626Z,0
2019-04-01T04:38:57.969Z,0
2019-04-01T04:39:21.309Z,0
2019-04-01T04:39:44.672Z,0
2019-04-01T04:40:07.988Z,0
2019-04-01T04:40:31.307Z,0
2019-04-01T04:40:54.728Z,0
2019-04-01T04:41:18.120Z,0
2019-04-01T04:41:41.445Z,0
2019-04-01T04:42:04.810Z,0
2019-04-01T04:42:28.144Z,0
2019-04-01T04:42:51.483Z,0
2019-04-01T04:43:14.835Z,0
2019-04-01T04:43:38.168Z,0
2019-04-01T04:44:01.608Z,0
2019-04-01T04:44:27.173Z,0
2019-04-01T04:44:52.563Z,0
2019-04-01T04:45:17.945Z,0
2019-04-01T04:45:43.326Z,0
2019-04-01T04:46:08.703Z,0
2019-04-01T04:46:34.109Z,0
2019-04-01T04:46:57.510Z,0
2019-04-01T04:47:20.857Z,0
2019-04-01T04:47:44.183Z,0
2019-04-01T04:48:07.569Z,1
2019-04-01T04:48:30.894Z,1
2019-04-01T04:48:54.230Z,1
2019-04-01T04:49:17.601Z,1
2019-04-01T04:49:40.921Z,1
2019-04-01T04:50:04.252Z,1
2019-04-01T04:50:27.730Z,0
2019-04-01T04:50:51.079Z,0
2019-04-01T04:51:14.405Z,1
2019-04-01T04:51:37.796Z,1
2019-04-01T04:52:04.384Z,1
2019-04-01T04:52:27.973Z,1
2019-04-01T04:52:51.340Z,1
2019-04-01T04:53:14.665Z,3
2019-04-01T04:53:37.978Z,2
2019-04-01T04:54:01.499Z,2
2019-04-01T04:54:24.831Z,3
2019-04-01T04:54:48.183Z,3
2019-04-01T04:55:11.535Z,3
2019-04-01T04:55:34.864Z,3
2019-04-01T04:55:58.275Z,3
2019-04-01T04:56:21.631Z,4
2019-04-01T04:56:44.983Z,3
2019-04-01T04:57:08.311Z,3
2019-04-01T04:57:31.711Z,3
2019-04-01T04:57:55.049Z,4
2019-04-01T04:58:18.365Z,4
2019-04-01T04:58:41.743Z,4
2019-04-01T04:59:05.081Z,4
2019-04-01T04:59:28.405Z,4
2019-04-01T04:59:51.788Z,4
2019-04-01T05:00:15.103Z,5
2019-04-01T05:00:38.430Z,4
2019-04-01T05:01:03.837Z,4
2019-04-01T05:01:29.208Z,5
2019-04-01T05:01:54.870Z,5
2019-04-01T05:02:20.297Z,5
2019-04-01T05:02:45.681Z,5
2019-04-01T05:03:11.063Z,5
2019-04-01T05:03:34.454Z,6
2019-04-01T05:03:57.781Z,5
2019-04-01T05:04:21.102Z,6
2019-04-01T05:04:44.468Z,6
2019-04-01T05:05:07.804Z,6
2019-04-01T05:05:31.130Z,6
2019-04-01T05:05:54.482Z,7
2019-04-01T05:06:17.804Z,6
2019-04-01T05:06:41.115Z,7
2019-04-01T05:07:04.556Z,7
2019-04-01T05:07:31.204Z,7
2019-04-01T05:07:54.774Z,8
2019-04-01T05:08:18.135Z,8
2019-04-01T05:08:41.473Z,8
2019-04-01T05:09:04.803Z,9
2019-04-01T05:09:28.180Z,8
2019-04-01T05:09:51.523Z,9
2019-04-01T05:10:14.858Z,9
2019-04-01T05:10:40.395Z,9
2019-04-01T05:11:05.768Z,9
2019-04-01T05:11:31.144Z,10
2019-04-01T05:11:56.521Z,10
2019-04-01T05:12:21.924Z,11
2019-04-01T05:12:47.295Z,11
2019-04-01T05:13:12.863Z,12
2019-04-01T05:13:38.223Z,11
2019-04-01T05:14:03.598Z,12
2019-04-01T05:14:28.984Z,12
2019-04-01T05:14:54.347Z,13
2019-04-01T05:15:19.737Z,13
2019-04-01T05:15:45.183Z,13
2019-04-01T05:16:10.613Z,13
2019-04-01T05:16:36.031Z,14
2019-04-01T05:17:01.398Z,14
2019-04-01T05:17:26.802Z,14
2019-04-01T05:17:52.182Z,14
2019-04-01T05:18:15.600Z,16
2019-04-01T05:18:38.918Z,16
2019-04-01T05:19:02.243Z,16
2019-04-01T05:19:25.691Z,17
2019-04-01T05:19:38.314Z,17
2019-04-01T05:20:01.623Z,16
2019-04-01T05:20:24.952Z,18
2019-04-01T05:20:48.359Z,18
2019-04-01T05:21:11.742Z,18
2019-04-01T05:21:35.080Z,19
2019-04-01T05:21:58.454Z,20
2019-04-01T05:22:21.818Z,20
2019-04-01T05:22:45.173Z,20
2019-04-01T05:23:08.533Z,20
2019-04-01T05:23:31.866Z,21
2019-04-01T05:23:55.180Z,21
2019-04-01T05:24:20.616Z,23
2019-04-01T05:24:45.996Z,22
2019-04-01T05:25:11.369Z,22
2019-04-01T05:25:36.758Z,23
2019-04-01T05:26:02.130Z,22
2019-04-01T05:26:27.498Z,22
2019-04-01T05:26:51.025Z,23
2019-04-01T05:27:14.361Z,24
2019-04-01T05:27:37.686Z,24
2019-04-01T05:28:01.068Z,25
2019-04-01T05:28:24.410Z,25
2019-04-01T05:28:47.727Z,25
2019-04-01T05:29:11.098Z,28
2019-04-01T05:29:34.420Z,28
2019-04-01T05:29:57.734Z,30
2019-04-01T05:30:21.281Z,29
2019-04-01T05:30:44.595Z,30
2019-04-01T05:31:07.919Z,31
2019-04-01T05:31:31.284Z,30
2019-04-01T05:31:54.599Z,32
2019-04-01T05:32:17.926Z,32
2019-04-01T05:32:41.294Z,33
2019-04-01T05:33:04.637Z,32
2019-04-01T05:33:27.971Z,35
2019-04-01T05:33:55.692Z,33
2019-04-01T05:34:19.305Z,34
2019-04-01T05:34:42.635Z,35
2019-04-01T05:35:05.987Z,36
2019-04-01T05:35:29.318Z,36
2019-04-01T05:35:52.630Z,37
2019-04-01T05:36:05.342Z,38
2019-04-01T05:36:28.664Z,37
2019-04-01T05:36:51.976Z,39
2019-04-01T05:37:15.298Z,39
2019-04-01T05:37:38.708Z,40
2019-04-01T05:38:02.050Z,39
2019-04-01T05:38:25.400Z,41
2019-04-01T05:38:48.751Z,41
2019-04-01T05:39:12.126Z,41
2019-04-01T05:39:35.451Z,42
2019-04-01T05:39:58.821Z,44
2019-04-01T05:40:22.132Z,45
2019-04-01T05:40:45.458Z,45
2019-04-01T05:41:10.892Z,46
2019-04-01T05:41:36.265Z,45
2019-04-01T05:42:01.627Z,47
2019-04-01T05:42:27.017Z,47
2019-04-01T05:42:52.388Z,47
2019-04-01T05:43:17.777Z,48
2019-04-01T05:43:43.289Z,49
2019-04-01T05:44:08.656Z,48
2019-04-01T05:44:34.030Z,50
2019-04-01T05:44:59.412Z,50
2019-04-01T05:45:24.794Z,51
2019-04-01T05:45:50.173Z,51
2019-04-01T05:46:13.547Z,52
2019-04-01T05:46:36.865Z,52
2019-04-01T05:47:00.194Z,53
2019-04-01T05:47:23.557Z,53
2019-04-01T05:47:46.950Z,54
2019-04-01T05:48:10.309Z,55
2019-04-01T05:48:33.668Z,54
2019-04-01T05:48:57.027Z,55